Chadron Municipal Airport
KCDR : now visible

Airfield :











YOU CAN JOIN US ON...

 
LOGIN :

Register | Disclaimer

   EN    FR    IT 

 









Legend :    VFR   Marginal VFR   IFR   Intensive IFR   Very Intensive IFR
Visi :
Ceiling :
>= 8 km
>= 3000ft
5 to 8 km
1000 to 3000 ft
1500m to 5 km
500 to 1000 ft
800 to 1500m
200 to 500 ft
< 800m
< 200 ft
Symbols :   Thunderstorms  Fog  Heavy snow  Heavy precipitations  Wind > 20 kt






- Airport Elevation : 3297 ft


KCDR - Chadron Municipal

CURRENT METAR :
  • 010053Z AUTO 31010KT 10SM FEW110 16/01 A2975 RMK AO2 SLP081 T01560006 $

EXPIRED METARs :
  • 312353Z AUTO 28015G24KT 10SM CLR 19/M02 A2973 RMK AO2 PK WND 28029/2325 SLP070 T01891022 10217 20183 55004 $
  • 312253Z AUTO 29011KT 10SM FEW085 SCT110 19/M03 A2973 RMK AO2 PK WND 25028/2202 SLP069 T01891028 $

TAF KCDR
Valid from the 01 at 00:00 until the 02 at 00:00 UTC


312320Z 0100/0124 28020G30KT P6SM VCSH BKN100
FM010200 22011KT P6SM BKN100
FM011400 29012KT P6SM BKN080
FM011900 03012KT P6SM BKN060



MET'MAP, your aeronautical weather chart ! - Copyright ORBIFLY December 2007 - Disclaimer

ORBIFLY MET'MAP TEAM :

Programming & Development : Alexandra Zaïnal
Concept & original design : Baudouin d'Aumeries
Assistance for programming : Marc-Olivier Méhu
Technical & hardware support : Manuel Goepfert

Contact : metmap@orbifly.com




SOURCES & CREDITS :

   NOAA       Earth
Advisory